sensor_id;sensor_type;location;lat;lon;timestamp;temperature;humidity
48488;DHT22;34289;48.572;13.378;2023-12-07T00:02:44;2.30;99.90
48488;DHT22;34289;48.572;13.378;2023-12-07T00:07:36;1.90;99.90
48488;DHT22;34289;48.572;13.378;2023-12-07T00:10:01;1.70;99.90
48488;DHT22;34289;48.572;13.378;2023-12-07T00:12:27;1.90;99.90
48488;DHT22;34289;48.572;13.378;2023-12-07T00:17:18;1.90;99.90
48488;DHT22;34289;48.572;13.378;2023-12-07T00:24:36;2.00;99.90
48488;DHT22;34289;48.572;13.378;2023-12-07T00:29:27;2.60;99.90
48488;DHT22;34289;48.572;13.378;2023-12-07T00:31:56;2.50;99.90
48488;DHT22;34289;48.572;13.378;2023-12-07T00:34:22;2.20;99.90
48488;DHT22;34289;48.572;13.378;2023-12-07T00:44:08;1.90;99.90
48488;DHT22;34289;48.572;13.378;2023-12-07T00:46:35;1.80;99.90
48488;DHT22;34289;48.572;13.378;2023-12-07T00:54:01;1.70;99.90
48488;DHT22;34289;48.572;13.378;2023-12-07T01:06:11;2.20;99.90
48488;DHT22;34289;48.572;13.378;2023-12-07T01:08:37;2.20;99.90
48488;DHT22;34289;48.572;13.378;2023-12-07T01:11:04;2.10;99.90
48488;DHT22;34289;48.572;13.378;2023-12-07T01:23:14;1.80;99.90
48488;DHT22;34289;48.572;13.378;2023-12-07T01:25:40;1.80;99.90
48488;DHT22;34289;48.572;13.378;2023-12-07T01:28:06;1.80;99.90
48488;DHT22;34289;48.572;13.378;2023-12-07T01:30:31;1.60;99.90
48488;DHT22;34289;48.572;13.378;2023-12-07T01:32:57;1.40;99.90
48488;DHT22;34289;48.572;13.378;2023-12-07T01:35:23;1.60;99.90
48488;DHT22;34289;48.572;13.378;2023-12-07T01:42:48;1.80;99.90
48488;DHT22;34289;48.572;13.378;2023-12-07T01:45:17;1.80;99.90
48488;DHT22;34289;48.572;13.378;2023-12-07T01:47:43;1.80;99.90
48488;DHT22;34289;48.572;13.378;2023-12-07T01:50:10;1.80;99.90
48488;DHT22;34289;48.572;13.378;2023-12-07T01:52:38;1.50;99.90
48488;DHT22;34289;48.572;13.378;2023-12-07T01:55:07;1.40;99.90
48488;DHT22;34289;48.572;13.378;2023-12-07T01:57:35;1.10;99.90
48488;DHT22;34289;48.572;13.378;2023-12-07T02:00:01;1.70;99.90
48488;DHT22;34289;48.572;13.378;2023-12-07T02:04:55;1.70;99.90
48488;DHT22;34289;48.572;13.378;2023-12-07T02:07:23;1.80;99.90
48488;DHT22;34289;48.572;13.378;2023-12-07T02:09:49;1.90;99.90
48488;DHT22;34289;48.572;13.378;2023-12-07T02:12:18;2.20;99.90
48488;DHT22;34289;48.572;13.378;2023-12-07T02:14:45;1.90;99.90
48488;DHT22;34289;48.572;13.378;2023-12-07T02:17:21;2.10;99.90
48488;DHT22;34289;48.572;13.378;2023-12-07T02:20:00;1.80;99.90
48488;DHT22;34289;48.572;13.378;2023-12-07T02:22:36;2.00;99.90
48488;DHT22;34289;48.572;13.378;2023-12-07T02:25:07;2.20;99.90
48488;DHT22;34289;48.572;13.378;2023-12-07T02:27:44;1.80;99.90
48488;DHT22;34289;48.572;13.378;2023-12-07T02:32:41;1.80;99.90
48488;DHT22;34289;48.572;13.378;2023-12-07T02:35:08;1.80;99.90
48488;DHT22;34289;48.572;13.378;2023-12-07T02:37:42;1.80;99.90
48488;DHT22;34289;48.572;13.378;2023-12-07T02:40:09;1.90;99.90
48488;DHT22;34289;48.572;13.378;2023-12-07T02:42:40;1.80;99.90
48488;DHT22;34289;48.572;13.378;2023-12-07T02:45:09;1.70;99.90
48488;DHT22;34289;48.572;13.378;2023-12-07T02:47:36;1.70;99.90
48488;DHT22;34289;48.572;13.378;2023-12-07T02:50:04;1.70;99.90
48488;DHT22;34289;48.572;13.378;2023-12-07T02:52:29;1.50;99.90
48488;DHT22;34289;48.572;13.378;2023-12-07T02:54:55;1.50;99.90
48488;DHT22;34289;48.572;13.378;2023-12-07T02:57:21;1.30;99.90
48488;DHT22;34289;48.572;13.378;2023-12-07T03:02:15;1.50;99.90
48488;DHT22;34289;48.572;13.378;2023-12-07T03:04:41;1.50;99.90
48488;DHT22;34289;48.572;13.378;2023-12-07T03:07:07;1.40;99.90
48488;DHT22;34289;48.572;13.378;2023-12-07T03:09:33;1.50;99.90
48488;DHT22;34289;48.572;13.378;2023-12-07T03:16:50;1.40;99.90
48488;DHT22;34289;48.572;13.378;2023-12-07T03:19:16;1.70;99.90
48488;DHT22;34289;48.572;13.378;2023-12-07T03:24:08;1.60;99.90
48488;DHT22;34289;48.572;13.378;2023-12-07T03:26:38;1.80;99.90
48488;DHT22;34289;48.572;13.378;2023-12-07T03:29:12;1.70;99.90
48488;DHT22;34289;48.572;13.378;2023-12-07T03:31:38;1.80;99.90
48488;DHT22;34289;48.572;13.378;2023-12-07T03:34:04;2.40;99.90
48488;DHT22;34289;48.572;13.378;2023-12-07T03:36:31;1.60;99.90
48488;DHT22;34289;48.572;13.378;2023-12-07T03:38:56;1.80;99.90
48488;DHT22;34289;48.572;13.378;2023-12-07T03:41:22;1.90;99.90
48488;DHT22;34289;48.572;13.378;2023-12-07T03:43:47;1.80;99.90
48488;DHT22;34289;48.572;13.378;2023-12-07T03:46:13;1.70;99.90
48488;DHT22;34289;48.572;13.378;2023-12-07T03:48:38;1.60;99.90
48488;DHT22;34289;48.572;13.378;2023-12-07T03:51:05;1.50;99.90
48488;DHT22;34289;48.572;13.378;2023-12-07T03:53:31;1.50;99.90
48488;DHT22;34289;48.572;13.378;2023-12-07T03:55:57;1.80;99.90
48488;DHT22;34289;48.572;13.378;2023-12-07T03:58:25;1.70;99.90
48488;DHT22;34289;48.572;13.378;2023-12-07T04:00:51;1.90;99.90
48488;DHT22;34289;48.572;13.378;2023-12-07T04:03:16;2.00;99.90
48488;DHT22;34289;48.572;13.378;2023-12-07T04:05:42;1.70;99.90
48488;DHT22;34289;48.572;13.378;2023-12-07T04:13:00;2.20;99.90
48488;DHT22;34289;48.572;13.378;2023-12-07T04:15:26;1.90;99.90
48488;DHT22;34289;48.572;13.378;2023-12-07T04:17:51;2.10;99.90
48488;DHT22;34289;48.572;13.378;2023-12-07T04:20:18;1.80;99.90
48488;DHT22;34289;48.572;13.378;2023-12-07T04:22:44;2.00;99.90
48488;DHT22;34289;48.572;13.378;2023-12-07T04:25:10;1.50;99.90
48488;DHT22;34289;48.572;13.378;2023-12-07T04:27:36;2.00;99.90
48488;DHT22;34289;48.572;13.378;2023-12-07T04:30:02;1.90;99.90
48488;DHT22;34289;48.572;13.378;2023-12-07T04:44:39;1.90;99.90
48488;DHT22;34289;48.572;13.378;2023-12-07T04:47:04;1.80;99.90
48488;DHT22;34289;48.572;13.378;2023-12-07T04:49:30;2.00;99.90
48488;DHT22;34289;48.572;13.378;2023-12-07T04:51:56;1.40;99.90
48488;DHT22;34289;48.572;13.378;2023-12-07T04:56:50;2.00;99.90
48488;DHT22;34289;48.572;13.378;2023-12-07T04:59:15;1.50;99.90
48488;DHT22;34289;48.572;13.378;2023-12-07T05:01:44;1.80;99.90
48488;DHT22;34289;48.572;13.378;2023-12-07T05:04:12;2.00;99.90
48488;DHT22;34289;48.572;13.378;2023-12-07T05:06:37;1.80;99.90
48488;DHT22;34289;48.572;13.378;2023-12-07T05:09:03;1.00;99.90
48488;DHT22;34289;48.572;13.378;2023-12-07T05:11:28;0.90;99.90
48488;DHT22;34289;48.572;13.378;2023-12-07T05:13:54;1.50;99.90
48488;DHT22;34289;48.572;13.378;2023-12-07T05:16:19;2.10;99.90
48488;DHT22;34289;48.572;13.378;2023-12-07T05:18:45;1.60;99.90
48488;DHT22;34289;48.572;13.378;2023-12-07T05:21:11;1.90;99.90
48488;DHT22;34289;48.572;13.378;2023-12-07T05:23:42;2.10;99.90
48488;DHT22;34289;48.572;13.378;2023-12-07T05:26:08;1.50;99.90
48488;DHT22;34289;48.572;13.378;2023-12-07T05:28:35;2.20;99.90
48488;DHT22;34289;48.572;13.378;2023-12-07T05:31:01;1.90;99.90
48488;DHT22;34289;48.572;13.378;2023-12-07T05:33:26;2.00;99.90
48488;DHT22;34289;48.572;13.378;2023-12-07T05:35:52;2.20;99.90
48488;DHT22;34289;48.572;13.378;2023-12-07T05:38:22;1.80;99.90
48488;DHT22;34289;48.572;13.378;2023-12-07T05:40:48;1.30;99.90
48488;DHT22;34289;48.572;13.378;2023-12-07T05:43:14;1.80;99.90
48488;DHT22;34289;48.572;13.378;2023-12-07T05:45:39;1.90;99.90
48488;DHT22;34289;48.572;13.378;2023-12-07T05:48:06;1.60;99.90
48488;DHT22;34289;48.572;13.378;2023-12-07T05:50:32;1.90;99.90
48488;DHT22;34289;48.572;13.378;2023-12-07T05:52:58;1.70;99.90
48488;DHT22;34289;48.572;13.378;2023-12-07T05:57:51;1.70;99.90
48488;DHT22;34289;48.572;13.378;2023-12-07T06:00:17;1.60;99.90
48488;DHT22;34289;48.572;13.378;2023-12-07T06:02:44;1.50;99.90
48488;DHT22;34289;48.572;13.378;2023-12-07T06:05:10;1.20;99.90
48488;DHT22;34289;48.572;13.378;2023-12-07T06:07:36;1.30;99.90
48488;DHT22;34289;48.572;13.378;2023-12-07T06:10:02;1.60;99.90
48488;DHT22;34289;48.572;13.378;2023-12-07T06:12:27;1.80;99.90
48488;DHT22;34289;48.572;13.378;2023-12-07T06:14:55;1.50;99.90
48488;DHT22;34289;48.572;13.378;2023-12-07T06:22:16;1.60;99.90
48488;DHT22;34289;48.572;13.378;2023-12-07T06:24:44;1.60;99.90
48488;DHT22;34289;48.572;13.378;2023-12-07T06:32:02;1.90;99.90
48488;DHT22;34289;48.572;13.378;2023-12-07T06:34:29;1.70;99.90
48488;DHT22;34289;48.572;13.378;2023-12-07T06:36:54;1.70;99.90
48488;DHT22;34289;48.572;13.378;2023-12-07T06:39:20;1.80;99.90
48488;DHT22;34289;48.572;13.378;2023-12-07T06:41:46;1.70;99.90
48488;DHT22;34289;48.572;13.378;2023-12-07T06:44:11;1.70;99.90
48488;DHT22;34289;48.572;13.378;2023-12-07T06:46:37;1.80;99.90
48488;DHT22;34289;48.572;13.378;2023-12-07T06:49:03;1.90;99.90
48488;DHT22;34289;48.572;13.378;2023-12-07T06:51:30;1.80;99.90
48488;DHT22;34289;48.572;13.378;2023-12-07T06:53:57;2.40;99.90
48488;DHT22;34289;48.572;13.378;2023-12-07T07:01:14;1.70;99.90
48488;DHT22;34289;48.572;13.378;2023-12-07T07:03:40;1.80;99.90
48488;DHT22;34289;48.572;13.378;2023-12-07T07:06:06;1.70;99.90
48488;DHT22;34289;48.572;13.378;2023-12-07T07:08:31;1.90;99.90
48488;DHT22;34289;48.572;13.378;2023-12-07T07:10:57;1.90;99.90
48488;DHT22;34289;48.572;13.378;2023-12-07T07:13:23;1.40;99.90
48488;DHT22;34289;48.572;13.378;2023-12-07T07:15:49;1.80;99.90
48488;DHT22;34289;48.572;13.378;2023-12-07T07:18:17;2.00;99.90
48488;DHT22;34289;48.572;13.378;2023-12-07T07:20:42;1.80;99.90
48488;DHT22;34289;48.572;13.378;2023-12-07T07:23:08;2.50;99.90
48488;DHT22;34289;48.572;13.378;2023-12-07T07:25:34;1.80;99.90
48488;DHT22;34289;48.572;13.378;2023-12-07T07:28:00;1.90;99.90
48488;DHT22;34289;48.572;13.378;2023-12-07T07:40:10;1.90;99.90
48488;DHT22;34289;48.572;13.378;2023-12-07T07:42:40;1.60;99.90
48488;DHT22;34289;48.572;13.378;2023-12-07T07:45:07;1.60;99.90
48488;DHT22;34289;48.572;13.378;2023-12-07T07:47:33;1.60;99.90
48488;DHT22;34289;48.572;13.378;2023-12-07T07:49:59;1.60;99.90
48488;DHT22;34289;48.572;13.378;2023-12-07T07:52:24;1.80;99.90
48488;DHT22;34289;48.572;13.378;2023-12-07T07:54:53;2.20;99.90
48488;DHT22;34289;48.572;13.378;2023-12-07T07:57:19;1.80;99.90
48488;DHT22;34289;48.572;13.378;2023-12-07T08:02:10;2.10;99.90
48488;DHT22;34289;48.572;13.378;2023-12-07T08:07:02;2.00;99.90
48488;DHT22;34289;48.572;13.378;2023-12-07T08:09:28;1.70;99.90
48488;DHT22;34289;48.572;13.378;2023-12-07T08:11:53;1.80;99.90
48488;DHT22;34289;48.572;13.378;2023-12-07T08:14:19;2.20;99.90
48488;DHT22;34289;48.572;13.378;2023-12-07T08:16:45;1.90;99.90
48488;DHT22;34289;48.572;13.378;2023-12-07T08:19:14;2.10;99.90
48488;DHT22;34289;48.572;13.378;2023-12-07T08:21:40;2.30;99.90
48488;DHT22;34289;48.572;13.378;2023-12-07T08:24:06;1.80;99.90
48488;DHT22;34289;48.572;13.378;2023-12-07T08:26:32;2.20;99.90
48488;DHT22;34289;48.572;13.378;2023-12-07T08:28:57;2.30;99.90
48488;DHT22;34289;48.572;13.378;2023-12-07T08:31:23;2.20;99.90
48488;DHT22;34289;48.572;13.378;2023-12-07T08:33:50;1.90;99.90
48488;DHT22;34289;48.572;13.378;2023-12-07T08:36:16;2.10;99.90
48488;DHT22;34289;48.572;13.378;2023-12-07T08:38:42;2.00;99.90
48488;DHT22;34289;48.572;13.378;2023-12-07T08:41:10;1.90;99.90
48488;DHT22;34289;48.572;13.378;2023-12-07T08:43:36;2.10;99.90
48488;DHT22;34289;48.572;13.378;2023-12-07T08:48:29;2.00;99.90
48488;DHT22;34289;48.572;13.378;2023-12-07T08:50:54;2.20;99.90
48488;DHT22;34289;48.572;13.378;2023-12-07T08:53:20;2.00;99.90
48488;DHT22;34289;48.572;13.378;2023-12-07T08:55:46;1.90;99.90
48488;DHT22;34289;48.572;13.378;2023-12-07T08:58:11;2.40;99.90
48488;DHT22;34289;48.572;13.378;2023-12-07T09:00:37;2.90;99.90
48488;DHT22;34289;48.572;13.378;2023-12-07T09:03:03;2.30;99.90
48488;DHT22;34289;48.572;13.378;2023-12-07T09:05:32;2.30;99.90
48488;DHT22;34289;48.572;13.378;2023-12-07T09:07:58;2.30;99.90
48488;DHT22;34289;48.572;13.378;2023-12-07T09:10:23;2.40;99.90
48488;DHT22;34289;48.572;13.378;2023-12-07T09:12:49;2.50;99.90
48488;DHT22;34289;48.572;13.378;2023-12-07T09:15:15;2.40;99.90
48488;DHT22;34289;48.572;13.378;2023-12-07T09:17:41;2.70;99.90
48488;DHT22;34289;48.572;13.378;2023-12-07T09:20:10;2.80;99.90
48488;DHT22;34289;48.572;13.378;2023-12-07T09:22:43;2.70;99.90
48488;DHT22;34289;48.572;13.378;2023-12-07T09:25:10;2.80;99.90
48488;DHT22;34289;48.572;13.378;2023-12-07T09:27:39;2.80;99.90
48488;DHT22;34289;48.572;13.378;2023-12-07T09:30:09;2.80;99.90
48488;DHT22;34289;48.572;13.378;2023-12-07T09:32:45;2.80;99.90
48488;DHT22;34289;48.572;13.378;2023-12-07T09:35:10;2.90;99.90
48488;DHT22;34289;48.572;13.378;2023-12-07T09:37:46;3.20;99.90
48488;DHT22;34289;48.572;13.378;2023-12-07T09:40:21;2.90;99.90
48488;DHT22;34289;48.572;13.378;2023-12-07T09:42:50;3.00;99.90
48488;DHT22;34289;48.572;13.378;2023-12-07T09:45:17;3.10;99.90
48488;DHT22;34289;48.572;13.378;2023-12-07T09:47:47;3.20;99.90
48488;DHT22;34289;48.572;13.378;2023-12-07T09:50:15;3.00;99.90
48488;DHT22;34289;48.572;13.378;2023-12-07T09:52:42;3.00;99.90
48488;DHT22;34289;48.572;13.378;2023-12-07T09:55:08;3.90;99.90
48488;DHT22;34289;48.572;13.378;2023-12-07T09:57:36;3.20;99.90
48488;DHT22;34289;48.572;13.378;2023-12-07T10:00:02;3.10;99.90
48488;DHT22;34289;48.572;13.378;2023-12-07T10:02:28;3.20;99.90
48488;DHT22;34289;48.572;13.378;2023-12-07T10:05:07;3.00;99.90
48488;DHT22;34289;48.572;13.378;2023-12-07T10:07:34;3.20;99.90
48488;DHT22;34289;48.572;13.378;2023-12-07T10:10:04;3.20;99.90
48488;DHT22;34289;48.572;13.378;2023-12-07T10:12:31;3.20;99.90
48488;DHT22;34289;48.572;13.378;2023-12-07T10:14:59;3.30;99.90
48488;DHT22;34289;48.572;13.378;2023-12-07T10:17:46;3.40;99.90
48488;DHT22;34289;48.572;13.378;2023-12-07T10:20:17;3.40;99.90
48488;DHT22;34289;48.572;13.378;2023-12-07T10:22:43;3.50;99.90
48488;DHT22;34289;48.572;13.378;2023-12-07T10:25:10;3.30;99.90
48488;DHT22;34289;48.572;13.378;2023-12-07T10:27:36;3.70;99.90
48488;DHT22;34289;48.572;13.378;2023-12-07T10:30:05;3.70;99.90
48488;DHT22;34289;48.572;13.378;2023-12-07T10:32:35;3.80;99.90
48488;DHT22;34289;48.572;13.378;2023-12-07T10:35:04;3.80;99.90
48488;DHT22;34289;48.572;13.378;2023-12-07T10:37:29;4.10;99.90
48488;DHT22;34289;48.572;13.378;2023-12-07T10:39:55;3.70;99.90
48488;DHT22;34289;48.572;13.378;2023-12-07T10:42:24;4.20;99.90
48488;DHT22;34289;48.572;13.378;2023-12-07T10:44:55;3.20;99.90
48488;DHT22;34289;48.572;13.378;2023-12-07T10:47:22;3.10;99.90
48488;DHT22;34289;48.572;13.378;2023-12-07T10:49:52;3.20;99.90
48488;DHT22;34289;48.572;13.378;2023-12-07T10:52:24;3.20;99.90
48488;DHT22;34289;48.572;13.378;2023-12-07T10:55:15;3.70;99.90
48488;DHT22;34289;48.572;13.378;2023-12-07T10:57:42;3.50;99.90
48488;DHT22;34289;48.572;13.378;2023-12-07T11:00:09;3.50;99.90
48488;DHT22;34289;48.572;13.378;2023-12-07T11:02:36;3.60;99.90
48488;DHT22;34289;48.572;13.378;2023-12-07T11:05:03;3.60;99.90
48488;DHT22;34289;48.572;13.378;2023-12-07T11:07:47;3.60;99.90
48488;DHT22;34289;48.572;13.378;2023-12-07T11:10:43;3.80;99.90
48488;DHT22;34289;48.572;13.378;2023-12-07T11:13:18;3.80;99.90
48488;DHT22;34289;48.572;13.378;2023-12-07T11:15:49;3.70;99.90
48488;DHT22;34289;48.572;13.378;2023-12-07T11:18:14;3.50;99.90
48488;DHT22;34289;48.572;13.378;2023-12-07T11:23:10;3.40;99.90
48488;DHT22;34289;48.572;13.378;2023-12-07T11:25:36;3.20;99.90
48488;DHT22;34289;48.572;13.378;2023-12-07T11:28:03;3.20;99.90
48488;DHT22;34289;48.572;13.378;2023-12-07T11:30:34;3.10;99.90
48488;DHT22;34289;48.572;13.378;2023-12-07T11:33:00;3.20;99.90
48488;DHT22;34289;48.572;13.378;2023-12-07T11:35:28;3.30;99.90
48488;DHT22;34289;48.572;13.378;2023-12-07T11:40:29;3.40;99.90
48488;DHT22;34289;48.572;13.378;2023-12-07T11:42:55;3.30;99.90
48488;DHT22;34289;48.572;13.378;2023-12-07T11:48:13;3.30;99.90
48488;DHT22;34289;48.572;13.378;2023-12-07T11:50:58;3.30;99.90
48488;DHT22;34289;48.572;13.378;2023-12-07T11:53:28;3.50;99.90
48488;DHT22;34289;48.572;13.378;2023-12-07T11:56:02;3.50;99.90
48488;DHT22;34289;48.572;13.378;2023-12-07T11:58:29;3.50;99.90
48488;DHT22;34289;48.572;13.378;2023-12-07T12:00:56;4.10;99.90
48488;DHT22;34289;48.572;13.378;2023-12-07T12:03:29;3.90;99.90
48488;DHT22;34289;48.572;13.378;2023-12-07T12:05:56;3.30;99.90
48488;DHT22;34289;48.572;13.378;2023-12-07T12:08:25;3.30;99.90
48488;DHT22;34289;48.572;13.378;2023-12-07T12:10:51;3.40;99.90
48488;DHT22;34289;48.572;13.378;2023-12-07T12:13:29;3.40;99.90
48488;DHT22;34289;48.572;13.378;2023-12-07T12:15:58;3.50;99.90
48488;DHT22;34289;48.572;13.378;2023-12-07T12:18:24;3.50;99.90
48488;DHT22;34289;48.572;13.378;2023-12-07T12:20:53;3.50;99.90
48488;DHT22;34289;48.572;13.378;2023-12-07T12:23:19;3.70;99.90
48488;DHT22;34289;48.572;13.378;2023-12-07T12:25:46;3.80;99.90
48488;DHT22;34289;48.572;13.378;2023-12-07T12:28:16;3.80;99.90
48488;DHT22;34289;48.572;13.378;2023-12-07T12:30:43;3.90;99.90
48488;DHT22;34289;48.572;13.378;2023-12-07T12:33:09;3.70;99.90
48488;DHT22;34289;48.572;13.378;2023-12-07T12:35:34;3.60;99.90
48488;DHT22;34289;48.572;13.378;2023-12-07T12:38:00;3.50;99.90
48488;DHT22;34289;48.572;13.378;2023-12-07T12:40:27;3.60;99.90
48488;DHT22;34289;48.572;13.378;2023-12-07T12:42:55;3.50;99.90
48488;DHT22;34289;48.572;13.378;2023-12-07T12:45:21;3.50;99.90
48488;DHT22;34289;48.572;13.378;2023-12-07T12:47:47;4.40;99.90
48488;DHT22;34289;48.572;13.378;2023-12-07T12:50:39;3.20;99.90
48488;DHT22;34289;48.572;13.378;2023-12-07T12:53:06;3.40;99.90
48488;DHT22;34289;48.572;13.378;2023-12-07T12:55:37;3.30;99.90
48488;DHT22;34289;48.572;13.378;2023-12-07T12:58:04;3.10;99.90
48488;DHT22;34289;48.572;13.378;2023-12-07T13:00:31;3.90;99.90
48488;DHT22;34289;48.572;13.378;2023-12-07T13:03:03;3.20;99.90
48488;DHT22;34289;48.572;13.378;2023-12-07T13:05:30;3.40;99.90
48488;DHT22;34289;48.572;13.378;2023-12-07T13:07:56;3.50;99.90
48488;DHT22;34289;48.572;13.378;2023-12-07T13:10:22;3.60;99.90
48488;DHT22;34289;48.572;13.378;2023-12-07T13:12:47;3.40;99.90
48488;DHT22;34289;48.572;13.378;2023-12-07T13:15:13;3.40;99.90
48488;DHT22;34289;48.572;13.378;2023-12-07T13:17:40;3.40;99.90
48488;DHT22;34289;48.572;13.378;2023-12-07T13:20:09;3.40;99.90
48488;DHT22;34289;48.572;13.378;2023-12-07T13:22:42;3.30;99.90
48488;DHT22;34289;48.572;13.378;2023-12-07T13:25:12;3.30;99.90
48488;DHT22;34289;48.572;13.378;2023-12-07T13:27:40;3.40;99.90
48488;DHT22;34289;48.572;13.378;2023-12-07T13:30:06;3.20;99.90
48488;DHT22;34289;48.572;13.378;2023-12-07T13:32:35;3.30;99.90
48488;DHT22;34289;48.572;13.378;2023-12-07T13:35:03;3.60;99.90
48488;DHT22;34289;48.572;13.378;2023-12-07T13:37:29;3.70;99.90
48488;DHT22;34289;48.572;13.378;2023-12-07T13:39:54;3.50;99.90
48488;DHT22;34289;48.572;13.378;2023-12-07T13:42:25;3.50;99.90
48488;DHT22;34289;48.572;13.378;2023-12-07T13:45:00;3.20;99.90
48488;DHT22;34289;48.572;13.378;2023-12-07T13:47:27;3.20;99.90
48488;DHT22;34289;48.572;13.378;2023-12-07T13:50:00;3.20;99.90
48488;DHT22;34289;48.572;13.378;2023-12-07T13:52:29;3.10;99.90
48488;DHT22;34289;48.572;13.378;2023-12-07T13:54:56;3.00;99.90
48488;DHT22;34289;48.572;13.378;2023-12-07T13:57:22;3.10;99.90
48488;DHT22;34289;48.572;13.378;2023-12-07T13:59:51;3.00;99.90
48488;DHT22;34289;48.572;13.378;2023-12-07T14:02:18;2.80;99.90
48488;DHT22;34289;48.572;13.378;2023-12-07T14:04:44;2.90;99.90
48488;DHT22;34289;48.572;13.378;2023-12-07T14:07:14;2.80;99.90
48488;DHT22;34289;48.572;13.378;2023-12-07T14:09:42;2.80;99.90
48488;DHT22;34289;48.572;13.378;2023-12-07T14:12:09;2.90;99.90
48488;DHT22;34289;48.572;13.378;2023-12-07T14:14:45;2.90;99.90
48488;DHT22;34289;48.572;13.378;2023-12-07T14:17:15;3.10;99.90
48488;DHT22;34289;48.572;13.378;2023-12-07T14:19:42;3.30;99.90
48488;DHT22;34289;48.572;13.378;2023-12-07T14:22:08;3.40;99.90
48488;DHT22;34289;48.572;13.378;2023-12-07T14:24:36;3.00;99.90
48488;DHT22;34289;48.572;13.378;2023-12-07T14:27:06;2.90;99.90
48488;DHT22;34289;48.572;13.378;2023-12-07T14:29:33;3.00;99.90
48488;DHT22;34289;48.572;13.378;2023-12-07T14:31:59;2.90;99.90
48488;DHT22;34289;48.572;13.378;2023-12-07T14:34:25;2.80;99.90
48488;DHT22;34289;48.572;13.378;2023-12-07T14:36:52;3.30;99.90
48488;DHT22;34289;48.572;13.378;2023-12-07T14:39:18;2.50;99.90
48488;DHT22;34289;48.572;13.378;2023-12-07T14:41:45;2.60;99.90
48488;DHT22;34289;48.572;13.378;2023-12-07T14:44:15;3.20;99.90
48488;DHT22;34289;48.572;13.378;2023-12-07T14:46:53;2.50;99.90
48488;DHT22;34289;48.572;13.378;2023-12-07T14:49:19;2.20;99.90
48488;DHT22;34289;48.572;13.378;2023-12-07T14:51:47;2.30;99.90
48488;DHT22;34289;48.572;13.378;2023-12-07T14:54:12;2.60;99.90
48488;DHT22;34289;48.572;13.378;2023-12-07T14:56:39;2.00;99.90
48488;DHT22;34289;48.572;13.378;2023-12-07T14:59:05;1.80;99.90
48488;DHT22;34289;48.572;13.378;2023-12-07T15:01:31;1.70;99.90
48488;DHT22;34289;48.572;13.378;2023-12-07T15:03:57;1.70;99.90
48488;DHT22;34289;48.572;13.378;2023-12-07T15:06:27;1.60;99.90
48488;DHT22;34289;48.572;13.378;2023-12-07T15:08:53;1.50;99.90
48488;DHT22;34289;48.572;13.378;2023-12-07T15:11:19;1.20;99.90
48488;DHT22;34289;48.572;13.378;2023-12-07T15:13:45;1.40;99.90
48488;DHT22;34289;48.572;13.378;2023-12-07T15:16:14;1.30;99.90
48488;DHT22;34289;48.572;13.378;2023-12-07T15:18:40;1.20;99.90
48488;DHT22;34289;48.572;13.378;2023-12-07T15:21:11;1.10;99.90
48488;DHT22;34289;48.572;13.378;2023-12-07T15:23:39;1.00;99.90
48488;DHT22;34289;48.572;13.378;2023-12-07T15:26:05;0.90;99.90
48488;DHT22;34289;48.572;13.378;2023-12-07T15:28:30;1.10;99.90
48488;DHT22;34289;48.572;13.378;2023-12-07T15:30:56;1.00;99.90
48488;DHT22;34289;48.572;13.378;2023-12-07T15:33:22;0.90;99.90
48488;DHT22;34289;48.572;13.378;2023-12-07T15:35:47;0.80;99.90
48488;DHT22;34289;48.572;13.378;2023-12-07T15:38:13;0.80;99.90
48488;DHT22;34289;48.572;13.378;2023-12-07T15:40:39;0.70;99.90
48488;DHT22;34289;48.572;13.378;2023-12-07T15:43:05;0.70;99.90
48488;DHT22;34289;48.572;13.378;2023-12-07T15:45:30;0.80;99.90
48488;DHT22;34289;48.572;13.378;2023-12-07T15:47:56;0.80;99.90
48488;DHT22;34289;48.572;13.378;2023-12-07T15:50:22;0.90;99.90
48488;DHT22;34289;48.572;13.378;2023-12-07T15:52:48;0.70;99.90
48488;DHT22;34289;48.572;13.378;2023-12-07T15:55:15;0.80;99.90
48488;DHT22;34289;48.572;13.378;2023-12-07T15:57:42;0.80;99.90
48488;DHT22;34289;48.572;13.378;2023-12-07T16:00:09;0.80;99.90
48488;DHT22;34289;48.572;13.378;2023-12-07T16:02:34;0.70;99.90
48488;DHT22;34289;48.572;13.378;2023-12-07T16:05:11;0.70;99.90
48488;DHT22;34289;48.572;13.378;2023-12-07T16:07:36;1.10;99.90
48488;DHT22;34289;48.572;13.378;2023-12-07T16:10:06;0.50;99.90
48488;DHT22;34289;48.572;13.378;2023-12-07T16:12:36;0.40;99.90
48488;DHT22;34289;48.572;13.378;2023-12-07T16:15:03;0.40;99.90
48488;DHT22;34289;48.572;13.378;2023-12-07T16:17:30;0.20;99.90
48488;DHT22;34289;48.572;13.378;2023-12-07T16:19:56;0.10;99.90
48488;DHT22;34289;48.572;13.378;2023-12-07T16:22:21;0.40;99.90
48488;DHT22;34289;48.572;13.378;2023-12-07T16:24:47;0.00;99.90
48488;DHT22;34289;48.572;13.378;2023-12-07T16:27:13;-0.20;99.90
48488;DHT22;34289;48.572;13.378;2023-12-07T16:29:38;0.30;99.90
48488;DHT22;34289;48.572;13.378;2023-12-07T16:32:05;-0.40;99.90
48488;DHT22;34289;48.572;13.378;2023-12-07T16:34:30;-0.50;99.90
48488;DHT22;34289;48.572;13.378;2023-12-07T16:36:56;-1.00;99.90
48488;DHT22;34289;48.572;13.378;2023-12-07T16:39:22;-0.80;99.90
48488;DHT22;34289;48.572;13.378;2023-12-07T16:41:47;-0.80;99.90
48488;DHT22;34289;48.572;13.378;2023-12-07T16:46:45;-1.00;99.90
48488;DHT22;34289;48.572;13.378;2023-12-07T16:49:14;-1.00;99.90
48488;DHT22;34289;48.572;13.378;2023-12-07T16:51:40;-0.70;99.90
48488;DHT22;34289;48.572;13.378;2023-12-07T16:54:05;-0.90;99.90
48488;DHT22;34289;48.572;13.378;2023-12-07T16:56:31;-1.00;99.90
48488;DHT22;34289;48.572;13.378;2023-12-07T16:58:57;-1.00;99.90
48488;DHT22;34289;48.572;13.378;2023-12-07T17:01:23;-1.00;99.90
48488;DHT22;34289;48.572;13.378;2023-12-07T17:03:49;-1.00;99.90
48488;DHT22;34289;48.572;13.378;2023-12-07T17:06:15;-1.10;99.90
48488;DHT22;34289;48.572;13.378;2023-12-07T17:08:41;-1.30;99.90
48488;DHT22;34289;48.572;13.378;2023-12-07T17:11:07;-1.40;99.90
48488;DHT22;34289;48.572;13.378;2023-12-07T17:13:33;-1.70;99.90
48488;DHT22;34289;48.572;13.378;2023-12-07T17:15:59;-1.30;99.90
48488;DHT22;34289;48.572;13.378;2023-12-07T17:23:16;-1.30;99.90
48488;DHT22;34289;48.572;13.378;2023-12-07T17:25:42;-1.60;99.90
48488;DHT22;34289;48.572;13.378;2023-12-07T17:33:01;-2.00;99.90
48488;DHT22;34289;48.572;13.378;2023-12-07T17:37:53;-2.00;99.90
48488;DHT22;34289;48.572;13.378;2023-12-07T17:42:45;-1.80;99.90
48488;DHT22;34289;48.572;13.378;2023-12-07T17:45:10;-1.90;99.90
48488;DHT22;34289;48.572;13.378;2023-12-07T17:47:39;-2.00;99.90
48488;DHT22;34289;48.572;13.378;2023-12-07T17:50:10;-2.30;99.90
48488;DHT22;34289;48.572;13.378;2023-12-07T17:57:27;-1.80;99.90
48488;DHT22;34289;48.572;13.378;2023-12-07T17:59:56;-2.20;99.90